createdAt,value
2019-04-05T00:00:03.489Z,13.39
2019-04-05T00:02:35.339Z,13.49
2019-04-05T00:05:06.134Z,13.45
2019-04-05T00:07:36.379Z,13.47
2019-04-05T00:10:08.023Z,13.57
2019-04-05T00:12:38.367Z,13.60
2019-04-05T00:15:15.589Z,13.60
2019-04-05T00:17:40.829Z,13.35
2019-04-05T00:20:11.573Z,13.37
2019-04-05T00:22:42.106Z,13.41
2019-04-05T00:25:12.519Z,13.22
2019-04-05T00:27:42.850Z,12.86
2019-04-05T00:30:13.275Z,12.93
2019-04-05T00:32:43.683Z,12.79
2019-04-05T00:35:13.936Z,12.90
2019-04-05T00:37:44.221Z,12.32
2019-04-05T00:40:14.789Z,12.54
2019-04-05T00:42:45.225Z,12.60
2019-04-05T00:45:27.507Z,12.43
2019-04-05T00:47:47.496Z,12.03
2019-04-05T00:50:17.849Z,11.68
2019-04-05T00:52:48.203Z,11.68
2019-04-05T00:55:18.460Z,11.65
2019-04-05T00:57:49.550Z,11.25
2019-04-05T01:00:20.338Z,11.13
2019-04-05T01:02:50.662Z,11.00
2019-04-05T01:05:20.988Z,11.08
2019-04-05T01:07:51.389Z,10.92
2019-04-05T01:10:22.569Z,10.74
2019-04-05T01:12:52.932Z,10.64
2019-04-05T01:15:23.210Z,10.61
2019-04-05T01:17:53.700Z,10.30
2019-04-05T01:20:25.398Z,10.38
2019-04-05T01:22:55.754Z,10.16
2019-04-05T01:25:27.904Z,10.29
2019-04-05T01:27:58.111Z,10.25
2019-04-05T01:30:28.938Z,10.10
2019-04-05T01:32:59.211Z,9.89
2019-04-05T01:35:29.433Z,10.00
2019-04-05T01:38:00.039Z,9.80
2019-04-05T01:40:32.708Z,9.94
2019-04-05T01:43:03.068Z,9.81
2019-04-05T01:45:33.588Z,9.67
2019-04-05T01:48:03.847Z,10.21
2019-04-05T01:50:34.086Z,9.83
2019-04-05T01:53:04.634Z,9.84
2019-04-05T01:55:34.967Z,9.70
2019-04-05T01:58:05.343Z,9.76
2019-04-05T02:00:35.609Z,9.94
2019-04-05T02:03:05.962Z,9.72
2019-04-05T02:05:36.316Z,9.58
2019-04-05T02:08:06.624Z,9.54
2019-04-05T02:10:37.022Z,9.64
2019-04-05T02:13:07.327Z,9.47
2019-04-05T02:15:38.053Z,9.46
2019-04-05T02:18:08.315Z,9.37
2019-04-05T02:20:38.509Z,9.62
2019-04-05T02:23:08.760Z,9.45
2019-04-05T02:25:39.032Z,9.37
2019-04-05T02:28:09.349Z,9.41
2019-04-05T02:30:40.256Z,9.48
2019-04-05T02:33:10.522Z,9.47
2019-04-05T02:35:40.952Z,9.51
2019-04-05T02:38:11.191Z,9.84
2019-04-05T02:40:42.704Z,9.71
2019-04-05T02:43:15.734Z,9.67
2019-04-05T02:45:47.675Z,9.49
2019-04-05T02:48:20.627Z,9.42
2019-04-05T02:50:54.902Z,9.86
2019-04-05T02:53:25.638Z,9.86
2019-04-05T02:55:56.771Z,9.75
2019-04-05T02:58:28.291Z,9.88
2019-04-05T03:00:58.826Z,9.59
2019-04-05T03:03:29.441Z,9.56
2019-04-05T03:05:59.734Z,9.77
2019-04-05T03:08:29.966Z,9.82
2019-04-05T03:11:08.876Z,9.31
2019-04-05T03:13:45.687Z,9.20
2019-04-05T03:16:21.039Z,9.35
2019-04-05T03:18:55.454Z,9.43
2019-04-05T03:21:28.584Z,9.86
2019-04-05T03:24:01.496Z,9.79
2019-04-05T03:26:35.153Z,9.59
2019-04-05T03:29:08.831Z,9.85
2019-04-05T03:31:39.952Z,9.71
2019-04-05T03:34:10.293Z,9.61
2019-04-05T03:36:40.864Z,9.58
2019-04-05T03:39:11.519Z,9.48
2019-04-05T03:41:41.953Z,9.87
2019-04-05T03:44:12.231Z,9.89
2019-04-05T03:46:56.605Z,9.52
2019-04-05T03:49:16.111Z,9.68
2019-04-05T03:51:46.451Z,9.67
2019-04-05T03:54:16.750Z,9.59
2019-04-05T03:56:47.234Z,9.45
2019-04-05T03:59:17.804Z,9.51
2019-04-05T04:01:48.143Z,9.38
2019-04-05T04:04:18.705Z,9.21
2019-04-05T04:06:49.164Z,9.42
2019-04-05T04:09:19.880Z,9.76
2019-04-05T04:11:50.229Z,9.48
2019-04-05T04:14:20.891Z,9.64
2019-04-05T04:16:51.246Z,9.86
2019-04-05T04:19:21.791Z,9.72
2019-04-05T04:22:28.337Z,9.50
2019-04-05T04:24:59.656Z,9.48
2019-04-05T04:27:30.552Z,9.51
2019-04-05T04:30:01.583Z,9.63
2019-04-05T04:32:34.401Z,9.50
2019-04-05T04:35:05.458Z,9.49
2019-04-05T04:37:36.230Z,9.45
2019-04-05T04:40:07.359Z,9.34
2019-04-05T04:42:38.171Z,9.47
2019-04-05T04:45:12.412Z,9.62
2019-04-05T04:47:40.738Z,9.50
2019-04-05T04:50:11.653Z,9.67
2019-04-05T04:52:42.567Z,9.81
2019-04-05T04:55:13.212Z,9.97
2019-04-05T04:57:43.897Z,9.92
2019-04-05T05:00:22.556Z,9.62
2019-04-05T05:02:54.469Z,9.55
2019-04-05T05:05:28.168Z,9.76
2019-04-05T05:07:58.968Z,10.06
2019-04-05T05:10:29.788Z,9.79
2019-04-05T05:13:00.158Z,9.92
2019-04-05T05:15:31.839Z,9.74
2019-04-05T05:18:02.095Z,9.85
2019-04-05T05:20:33.221Z,9.82
2019-04-05T05:23:03.622Z,9.77
2019-04-05T05:25:34.577Z,9.76
2019-04-05T05:28:05.231Z,9.95
2019-04-05T05:30:35.967Z,10.13
2019-04-05T05:33:08.800Z,10.16
2019-04-05T05:35:39.393Z,9.69
2019-04-05T05:38:11.751Z,9.43
2019-04-05T05:40:48.175Z,9.53
2019-04-05T05:43:18.481Z,9.85
2019-04-05T05:45:49.838Z,10.22
2019-04-05T05:48:22.022Z,10.33
2019-04-05T05:50:53.060Z,10.23
2019-04-05T05:53:23.542Z,10.45
2019-04-05T05:55:53.966Z,10.47
2019-04-05T05:59:21.743Z,9.88
2019-04-05T06:01:55.642Z,10.48
2019-04-05T06:04:26.090Z,11.45
2019-04-05T06:06:57.511Z,11.77
2019-04-05T06:09:27.958Z,11.41
2019-04-05T06:11:58.277Z,13.01
2019-04-05T06:14:28.675Z,12.58
2019-04-05T06:16:58.948Z,13.01
2019-04-05T06:19:30.935Z,12.73
2019-04-05T06:22:01.534Z,12.46
2019-04-05T06:24:34.100Z,13.02
2019-04-05T06:27:05.061Z,12.81
2019-04-05T06:29:35.926Z,12.34
2019-04-05T06:32:06.194Z,12.00
2019-04-05T06:34:38.684Z,12.03
2019-04-05T06:37:19.189Z,13.25
2019-04-05T06:39:49.968Z,12.44
2019-04-05T06:42:20.189Z,12.03
2019-04-05T06:44:50.511Z,11.64
2019-04-05T06:47:20.925Z,11.73
2019-04-05T06:49:51.375Z,11.63
2019-04-05T06:52:21.658Z,11.70
2019-04-05T06:54:52.133Z,11.92
2019-04-05T06:57:23.477Z,11.90
2019-04-05T06:59:53.896Z,11.82
2019-04-05T07:02:26.596Z,11.91
2019-04-05T07:04:57.091Z,11.27
2019-04-05T07:07:33.940Z,11.20
2019-04-05T07:10:13.040Z,11.33
2019-04-05T07:12:46.733Z,11.29
2019-04-05T07:15:17.389Z,11.04
2019-04-05T07:17:47.979Z,11.19
2019-04-05T07:20:18.288Z,11.03
2019-04-05T07:22:48.652Z,11.36
2019-04-05T07:25:18.996Z,11.83
2019-04-05T07:27:50.838Z,12.54
2019-04-05T07:30:21.309Z,12.62
2019-04-05T07:32:51.604Z,14.26
2019-04-05T07:35:32.677Z,14.74
2019-04-05T07:37:54.171Z,14.33
2019-04-05T07:40:25.947Z,13.90
2019-04-05T07:42:56.373Z,13.34
2019-04-05T07:45:26.663Z,14.68
2019-04-05T07:47:57.832Z,14.89
2019-04-05T07:50:28.094Z,15.77
2019-04-05T07:52:58.380Z,15.30
2019-04-05T07:55:28.700Z,14.83
2019-04-05T07:57:59.793Z,16.41
2019-04-05T08:00:51.150Z,16.27
2019-04-05T08:03:22.813Z,17.40
2019-04-05T08:05:53.679Z,17.13
2019-04-05T08:08:45.723Z,16.32
2019-04-05T08:11:18.059Z,17.10
2019-04-05T08:14:03.411Z,17.73
2019-04-05T08:16:44.691Z,18.25
2019-04-05T08:19:24.805Z,17.99
2019-04-05T08:21:59.333Z,18.49
2019-04-05T08:24:29.626Z,17.65
2019-04-05T08:26:59.849Z,18.27
2019-04-05T08:29:30.242Z,16.62
2019-04-05T08:32:13.620Z,16.52
2019-04-05T08:34:33.510Z,18.99
2019-04-05T08:37:03.836Z,18.85
2019-04-05T08:39:34.222Z,17.40
2019-04-05T08:42:04.844Z,18.53
2019-04-05T08:44:35.204Z,17.15
2019-04-05T08:47:06.046Z,17.07
2019-04-05T08:49:36.825Z,16.71
2019-04-05T08:52:07.352Z,17.84
2019-04-05T08:54:38.952Z,18.59
2019-04-05T08:57:09.388Z,19.83
2019-04-05T08:59:40.360Z,19.69
2019-04-05T09:02:10.837Z,19.94
2019-04-05T09:04:41.435Z,19.94
2019-04-05T09:07:13.160Z,18.68
2019-04-05T09:09:43.733Z,18.36
2019-04-05T09:12:15.032Z,18.09
2019-04-05T09:14:45.417Z,17.55
2019-04-05T09:17:16.096Z,18.44
2019-04-05T09:19:47.199Z,18.26
2019-04-05T09:22:17.735Z,20.91
2019-04-05T09:24:48.059Z,19.61
2019-04-05T09:27:18.446Z,18.30
2019-04-05T09:29:49.218Z,18.51
2019-04-05T09:32:19.528Z,20.06
2019-04-05T09:34:49.751Z,19.41
2019-04-05T09:37:20.802Z,19.56
2019-04-05T09:39:51.060Z,19.63
2019-04-05T09:42:21.335Z,18.78
2019-04-05T09:44:51.636Z,17.97
2019-04-05T09:47:22.006Z,18.06
2019-04-05T09:49:52.429Z,18.40
2019-04-05T09:52:22.675Z,19.88
2019-04-05T09:54:52.989Z,18.45
2019-04-05T09:57:23.196Z,17.78
2019-04-05T09:59:54.010Z,19.13
2019-04-05T10:02:24.285Z,18.35
2019-04-05T10:04:55.190Z,18.88
2019-04-05T10:07:25.851Z,18.94
2019-04-05T10:09:56.159Z,19.86
2019-04-05T10:12:26.912Z,19.72
2019-04-05T10:14:57.575Z,18.80
2019-04-05T10:17:28.273Z,19.75
2019-04-05T10:19:58.979Z,19.34
2019-04-05T10:22:30.325Z,19.57
2019-04-05T10:25:00.811Z,19.77
2019-04-05T10:27:31.269Z,19.12
2019-04-05T10:30:01.600Z,19.11
2019-04-05T10:32:32.065Z,19.04
2019-04-05T10:35:02.976Z,20.07
2019-04-05T10:37:33.890Z,19.48
2019-04-05T10:40:07.564Z,20.02
2019-04-05T10:42:38.774Z,20.07
2019-04-05T10:45:10.857Z,20.00
2019-04-05T10:47:41.514Z,19.50
2019-04-05T10:50:15.340Z,19.78
2019-04-05T10:52:45.824Z,21.39
2019-04-05T10:55:16.377Z,20.16
2019-04-05T10:57:46.759Z,20.31
2019-04-05T11:00:19.334Z,20.42
2019-04-05T11:02:49.803Z,20.51
2019-04-05T11:05:20.104Z,19.34
2019-04-05T11:07:50.809Z,19.67
2019-04-05T11:10:21.638Z,20.04
2019-04-05T11:12:52.307Z,20.41
2019-04-05T11:15:22.736Z,19.34
2019-04-05T11:17:53.308Z,19.03
2019-04-05T11:20:23.799Z,19.47
2019-04-05T11:22:54.294Z,19.95
2019-04-05T11:25:26.903Z,19.74
2019-04-05T11:27:59.131Z,19.60
2019-04-05T11:30:51.977Z,19.48
2019-04-05T11:33:23.267Z,19.79
2019-04-05T11:35:57.898Z,19.72
2019-04-05T11:38:29.514Z,19.97
2019-04-05T11:41:01.380Z,20.18
2019-04-05T11:43:35.313Z,20.36
2019-04-05T11:46:08.898Z,20.23
2019-04-05T11:48:41.357Z,19.96
2019-04-05T11:51:12.174Z,19.93
2019-04-05T11:53:42.781Z,19.36
2019-04-05T11:56:14.818Z,19.10
2019-04-05T11:58:48.771Z,18.90
2019-04-05T12:01:30.669Z,18.98
2019-04-05T12:04:00.881Z,18.56
2019-04-05T12:06:35.136Z,18.98
2019-04-05T12:09:08.967Z,18.70
2019-04-05T12:11:39.730Z,19.38
2019-04-05T12:14:10.104Z,19.91
2019-04-05T12:16:40.890Z,19.87
2019-04-05T12:19:11.280Z,19.52
2019-04-05T12:21:41.551Z,18.53
2019-04-05T12:24:11.910Z,18.93
2019-04-05T12:26:42.778Z,18.93
2019-04-05T12:29:13.687Z,18.94
2019-04-05T12:31:44.012Z,19.05
2019-04-05T12:34:14.761Z,18.57
2019-04-05T12:36:46.153Z,18.86
2019-04-05T12:39:17.777Z,19.51
2019-04-05T12:41:48.792Z,19.53
2019-04-05T12:44:19.213Z,19.51
2019-04-05T12:46:49.524Z,19.04
2019-04-05T12:49:19.837Z,19.25
2019-04-05T12:51:50.851Z,19.12
2019-04-05T12:54:23.665Z,19.58
2019-04-05T12:56:58.124Z,19.46
2019-04-05T12:59:28.902Z,18.84
2019-04-05T13:01:59.859Z,19.04
2019-04-05T13:04:30.268Z,19.14
2019-04-05T13:07:01.210Z,19.40
2019-04-05T13:09:31.553Z,19.85
2019-04-05T13:12:01.925Z,19.14
2019-04-05T13:14:32.421Z,19.51
2019-04-05T13:17:03.175Z,20.07
2019-04-05T13:19:33.363Z,19.62
2019-04-05T13:22:03.871Z,20.26
2019-04-05T13:24:34.513Z,20.74
2019-04-05T13:27:04.856Z,20.72
2019-04-05T13:29:35.510Z,20.05
2019-04-05T13:32:05.983Z,19.31
2019-04-05T13:34:36.368Z,20.27
2019-04-05T13:37:19.314Z,20.63
2019-04-05T13:39:39.170Z,20.81
2019-04-05T13:42:10.456Z,20.62
2019-04-05T13:44:40.831Z,20.91
2019-04-05T13:47:11.073Z,20.95
2019-04-05T13:49:41.586Z,20.27
2019-04-05T13:52:12.781Z,19.53
2019-04-05T13:54:43.236Z,19.66
2019-04-05T13:57:15.736Z,20.23
2019-04-05T13:59:46.904Z,20.05
2019-04-05T14:02:20.718Z,20.39
2019-04-05T14:04:49.321Z,20.82
2019-04-05T14:07:21.588Z,20.89
2019-04-05T14:09:53.587Z,20.72
2019-04-05T14:12:31.172Z,20.56
2019-04-05T14:15:02.013Z,20.63
2019-04-05T14:17:33.809Z,20.25
2019-04-05T14:20:04.927Z,20.61
2019-04-05T14:22:35.252Z,20.03
2019-04-05T14:25:06.734Z,20.51
2019-04-05T14:27:39.143Z,19.87
2019-04-05T14:30:09.375Z,20.00
2019-04-05T14:32:40.127Z,19.93
2019-04-05T14:35:14.250Z,20.17
2019-04-05T14:37:44.570Z,20.29
2019-04-05T14:40:15.423Z,20.56
2019-04-05T14:42:45.787Z,20.49
2019-04-05T14:45:16.287Z,20.86
2019-04-05T14:47:46.574Z,20.89
2019-04-05T14:50:17.088Z,20.65
2019-04-05T14:52:49.539Z,20.79
2019-04-05T14:55:19.576Z,20.89
2019-04-05T14:57:50.916Z,20.63
2019-04-05T15:00:21.481Z,20.72
2019-04-05T15:02:51.740Z,20.77
2019-04-05T15:05:23.924Z,20.21
2019-04-05T15:07:55.078Z,20.67
2019-04-05T15:10:26.173Z,19.86
2019-04-05T15:12:56.697Z,19.63
2019-04-05T15:15:27.017Z,19.97
2019-04-05T15:17:57.238Z,19.90
2019-04-05T15:20:27.624Z,19.84
2019-04-05T15:23:00.008Z,19.96
2019-04-05T15:25:30.345Z,19.94
2019-04-05T15:28:00.655Z,19.63
2019-04-05T15:30:30.943Z,19.62
2019-04-05T15:33:04.636Z,19.77
2019-04-05T15:35:35.943Z,19.92
2019-04-05T15:38:07.787Z,19.74
2019-04-05T15:40:38.405Z,19.83
2019-04-05T15:43:09.796Z,19.65
2019-04-05T15:45:42.760Z,19.63
2019-04-05T15:48:13.299Z,19.75
2019-04-05T15:50:43.653Z,19.48
2019-04-05T15:53:19.363Z,19.52
2019-04-05T15:55:49.597Z,19.34
2019-04-05T15:58:20.164Z,19.26
2019-04-05T16:00:50.411Z,19.34
2019-04-05T16:03:20.758Z,19.34
2019-04-05T16:05:50.986Z,19.25
2019-04-05T16:08:21.311Z,19.26
2019-04-05T16:10:52.730Z,19.09
2019-04-05T16:13:22.976Z,19.15
2019-04-05T16:15:53.316Z,19.29
2019-04-05T16:18:23.698Z,19.17
2019-04-05T16:20:56.220Z,19.28
2019-04-05T16:23:26.450Z,19.32
2019-04-05T16:25:56.831Z,19.27
2019-04-05T16:28:27.165Z,19.05
2019-04-05T16:30:58.477Z,18.97
2019-04-05T16:33:28.945Z,18.84
2019-04-05T16:35:59.175Z,18.66
2019-04-05T16:38:29.553Z,18.74
2019-04-05T16:41:00.314Z,18.59
2019-04-05T16:43:31.753Z,18.62
2019-04-05T16:46:02.057Z,18.52
2019-04-05T16:48:32.614Z,18.79
2019-04-05T16:51:03.019Z,18.63
2019-04-05T16:53:33.278Z,18.72
2019-04-05T16:56:03.489Z,18.33
2019-04-05T16:58:33.907Z,18.32
2019-04-05T17:01:06.414Z,18.31
2019-04-05T17:03:37.147Z,18.51
2019-04-05T17:06:07.475Z,18.48
2019-04-05T17:08:37.977Z,18.59
2019-04-05T17:11:08.368Z,18.53
2019-04-05T17:13:38.575Z,18.42
2019-04-05T17:16:08.819Z,18.40
2019-04-05T17:18:39.133Z,18.31
2019-04-05T17:21:09.408Z,18.18
2019-04-05T17:23:39.859Z,18.03
2019-04-05T17:26:10.159Z,18.04
2019-04-05T17:28:40.460Z,18.04
2019-04-05T17:31:10.839Z,17.93
2019-04-05T17:33:41.375Z,17.82
2019-04-05T17:36:11.721Z,17.81
2019-04-05T17:38:42.190Z,17.82
2019-04-05T17:41:12.546Z,17.88
2019-04-05T17:43:42.862Z,17.81
2019-04-05T17:46:14.193Z,17.76
2019-04-05T17:48:44.536Z,17.66
2019-04-05T17:51:14.768Z,17.71
2019-04-05T17:53:45.307Z,17.62
2019-04-05T17:56:15.699Z,17.45
2019-04-05T17:58:46.561Z,17.47
2019-04-05T18:01:16.760Z,17.29
2019-04-05T18:03:47.104Z,17.25
2019-04-05T18:06:17.377Z,17.24
2019-04-05T18:08:47.797Z,17.14
2019-04-05T18:11:18.277Z,17.10
2019-04-05T18:13:48.733Z,17.07
2019-04-05T18:16:20.638Z,17.07
2019-04-05T18:18:51.042Z,16.91
2019-04-05T18:21:21.448Z,16.91
2019-04-05T18:23:52.884Z,16.87
2019-04-05T18:26:23.430Z,16.81
2019-04-05T18:28:53.677Z,16.81
2019-04-05T18:31:23.892Z,16.86
2019-04-05T18:33:54.183Z,16.79
2019-04-05T18:36:25.496Z,16.69
2019-04-05T18:38:55.727Z,16.62
2019-04-05T18:41:26.350Z,16.55
2019-04-05T18:43:56.645Z,16.51
2019-04-05T18:46:27.764Z,16.47
2019-04-05T18:48:58.015Z,16.35
2019-04-05T18:51:28.244Z,16.24
2019-04-05T18:53:58.486Z,16.30
2019-04-05T18:56:28.761Z,16.22
2019-04-05T18:58:59.315Z,16.14
2019-04-05T19:01:30.745Z,15.96
2019-04-05T19:04:01.170Z,15.83
2019-04-05T19:06:35.485Z,15.82
2019-04-05T19:09:07.619Z,15.86
2019-04-05T19:11:39.327Z,15.76
2019-04-05T19:14:09.893Z,15.74
2019-04-05T19:16:40.195Z,15.73
2019-04-05T19:19:10.467Z,15.64
2019-04-05T19:21:40.679Z,15.59
2019-04-05T19:24:10.947Z,15.44
2019-04-05T19:26:41.311Z,15.46
2019-04-05T19:29:11.525Z,15.27
2019-04-05T19:49:29.064Z,14.72
2019-04-05T19:51:59.368Z,14.71
2019-04-05T19:54:29.736Z,14.51
2019-04-05T19:57:00.030Z,14.52
2019-04-05T19:59:30.351Z,14.46
2019-04-05T20:02:00.620Z,14.45
2019-04-05T20:04:31.173Z,14.40
2019-04-05T20:07:01.393Z,14.35
2019-04-05T20:09:31.677Z,14.33
2019-04-05T20:12:01.997Z,14.28
2019-04-05T20:14:32.281Z,14.29
2019-04-05T20:17:02.670Z,14.16
2019-04-05T20:19:33.216Z,14.20
2019-04-05T20:22:04.526Z,14.14
2019-04-05T20:24:34.794Z,13.92
2019-04-05T20:27:05.442Z,13.88
2019-04-05T20:29:35.664Z,13.89
2019-04-05T20:32:06.042Z,13.78
2019-04-05T20:34:36.276Z,13.78
2019-04-05T20:37:06.558Z,13.63
2019-04-05T20:39:37.015Z,13.60
2019-04-05T20:42:07.831Z,13.50
2019-04-05T20:44:38.192Z,13.61
2019-04-05T20:47:08.411Z,13.29
2019-04-05T20:49:38.696Z,13.33
2019-04-05T20:52:10.211Z,13.38
2019-04-05T20:54:40.498Z,13.39
2019-04-05T20:57:10.721Z,13.33
2019-04-05T20:59:43.589Z,13.29
2019-04-05T21:02:15.250Z,13.23
2019-04-05T21:04:45.572Z,13.05
2019-04-05T21:07:15.843Z,13.13
2019-04-05T21:09:46.141Z,13.00
2019-04-05T21:12:16.235Z,13.12
2019-04-05T21:14:46.693Z,12.93
2019-04-05T21:17:16.952Z,12.93
2019-04-05T21:19:47.215Z,12.87
2019-04-05T21:22:17.476Z,12.95
2019-04-05T21:24:47.756Z,12.79
2019-04-05T21:27:18.070Z,12.71
2019-04-05T21:29:48.424Z,12.77
2019-04-05T21:32:18.824Z,12.74
2019-04-05T21:34:49.085Z,12.74
2019-04-05T21:37:19.293Z,12.69
2019-04-05T21:39:49.539Z,12.73
2019-04-05T21:42:20.342Z,12.70
2019-04-05T21:44:50.717Z,12.76
2019-04-05T21:47:21.130Z,12.99
2019-04-05T21:49:51.558Z,12.81
2019-04-05T21:52:22.111Z,12.80
2019-04-05T21:54:52.464Z,12.70
2019-04-05T21:57:23.104Z,12.57
2019-04-05T21:59:53.397Z,12.39
2019-04-05T22:02:24.142Z,12.33
2019-04-05T22:04:54.730Z,12.45
2019-04-05T22:07:25.048Z,12.47
2019-04-05T22:09:55.373Z,12.55
2019-04-05T22:12:29.915Z,12.44
2019-04-05T22:15:00.344Z,12.44
2019-04-05T22:17:31.651Z,12.39
2019-04-05T22:20:02.226Z,12.18
2019-04-05T22:22:33.069Z,11.89
2019-04-05T22:25:04.774Z,11.86
2019-04-05T22:27:35.134Z,12.00
2019-04-05T22:30:07.577Z,12.15
2019-04-05T22:32:37.856Z,12.35
2019-04-05T22:35:10.426Z,12.50
2019-04-05T22:37:40.680Z,12.58
2019-04-05T22:40:11.285Z,12.31
2019-04-05T22:42:41.796Z,12.46
2019-04-05T22:45:12.188Z,12.32
2019-04-05T22:47:42.457Z,12.30
2019-04-05T22:50:15.246Z,12.19
2019-04-05T22:52:45.489Z,12.32
2019-04-05T22:55:15.919Z,12.11
2019-04-05T22:57:47.058Z,11.81
2019-04-05T23:00:17.424Z,11.75
2019-04-05T23:02:49.347Z,11.52
2019-04-05T23:05:19.809Z,11.67
2019-04-05T23:07:50.520Z,11.64
2019-04-05T23:10:20.855Z,11.63
2019-04-05T23:12:51.113Z,11.24
2019-04-05T23:15:21.493Z,11.53
2019-04-05T23:17:51.725Z,11.42
2019-04-05T23:20:22.024Z,11.34
2019-04-05T23:22:52.241Z,11.32
2019-04-05T23:25:22.654Z,11.51
2019-04-05T23:27:52.916Z,11.59
2019-04-05T23:30:24.424Z,11.58
2019-04-05T23:32:54.709Z,11.59
2019-04-05T23:35:25.103Z,11.61
2019-04-05T23:37:55.535Z,11.63
2019-04-05T23:40:25.740Z,11.65
2019-04-05T23:42:56.286Z,11.74
2019-04-05T23:45:26.615Z,11.69
2019-04-05T23:47:56.863Z,11.56
2019-04-05T23:50:28.276Z,11.51
2019-04-05T23:52:58.656Z,11.50
2019-04-05T23:55:33.655Z,11.43
2019-04-05T23:58:01.175Z,11.32
